Time;durP1;ratioP1;P1;durP2;ratioP2;P2;SDS_P1;SDS_P2;PMS_P1;PMS_P2;Temp;Humidity;BMP_temperature;BMP_pressure;BME280_temperature;BME280_humidity;BME280_pressure;Samples;Min_cycle;Max_cycle;Signal;HPM_P1;HPM_P2
2023/05/27 00:02:11;;;;;;;25.92;6.60;;;10.50;99.90;;;;;;5042863;28;20577;-73
2023/05/27 00:04:38;;;;;;;16.52;6.00;;;10.50;99.90;;;;;;5050542;28;20192;-74
2023/05/27 00:07:05;;;;;;;17.70;6.13;;;10.50;99.90;;;;;;5046744;28;20223;-74
2023/05/27 00:09:32;;;;;;;11.23;4.90;;;10.50;99.90;;;;;;5045624;28;20308;-73
2023/05/27 00:12:00;;;;;;;18.50;5.65;;;10.50;99.90;;;;;;5053792;28;20287;-73
2023/05/27 00:14:27;;;;;;;22.05;6.40;;;10.50;99.90;;;;;;5052532;28;20306;-74
2023/05/27 00:16:56;;;;;;;18.58;5.65;;;10.40;99.90;;;;;;5048016;28;20195;-74
2023/05/27 00:19:23;;;;;;;14.15;5.65;;;10.40;99.90;;;;;;5048532;28;20641;-74
2023/05/27 00:21:52;;;;;;;16.50;4.50;;;10.40;99.90;;;;;;5049661;28;20223;-72
2023/05/27 00:24:20;;;;;;;17.30;5.30;;;10.40;99.90;;;;;;5044723;28;20902;-73
2023/05/27 00:26:47;;;;;;;18.77;5.68;;;10.50;99.90;;;;;;5050670;28;20199;-74
2023/05/27 00:29:14;;;;;;;14.02;5.32;;;10.40;99.90;;;;;;5046640;28;20676;-73
2023/05/27 00:31:42;;;;;;;36.35;6.32;;;10.40;99.90;;;;;;5049145;28;20201;-73
2023/05/27 00:34:11;;;;;;;18.95;5.50;;;10.40;99.90;;;;;;5048332;28;20222;-74
2023/05/27 00:36:38;;;;;;;18.42;5.70;;;10.30;99.90;;;;;;5043350;28;20286;-74
2023/05/27 00:39:05;;;;;;;20.95;6.72;;;10.30;99.90;;;;;;5045627;28;20200;-74
2023/05/27 00:41:33;;;;;;;23.23;7.55;;;10.30;99.90;;;;;;5049115;28;20234;-72
2023/05/27 00:44:00;;;;;;;11.75;4.50;;;10.30;99.90;;;;;;5047075;28;20283;-73
2023/05/27 00:46:27;;;;;;;15.98;5.80;;;10.30;99.90;;;;;;5045182;28;20306;-74
2023/05/27 00:48:54;;;;;;;26.63;5.60;;;10.20;99.90;;;;;;5049021;28;20283;-73
2023/05/27 00:51:23;;;;;;;17.88;6.05;;;10.20;99.90;;;;;;5045104;28;20227;-74
2023/05/27 00:53:50;;;;;;;20.55;6.50;;;10.20;99.90;;;;;;5048717;28;20227;-72
2023/05/27 00:56:17;;;;;;;16.10;5.43;;;10.20;99.90;;;;;;5047677;28;20207;-75
2023/05/27 00:58:44;;;;;;;18.15;5.80;;;10.20;99.90;;;;;;5049483;28;20245;-74
2023/05/27 01:01:11;;;;;;;18.48;4.85;;;10.20;99.90;;;;;;5048660;28;20598;-72
2023/05/27 01:03:41;;;;;;;15.30;5.95;;;10.20;99.90;;;;;;5046299;28;20221;-72
2023/05/27 01:06:16;;;;;;;16.60;6.32;;;10.20;99.90;;;;;;5058284;28;20221;-73
2023/05/27 01:08:53;;;;;;;22.45;7.13;;;10.10;99.90;;;;;;5048792;28;20199;-73
2023/05/27 01:11:28;;;;;;;9.55;4.18;;;10.10;99.90;;;;;;5051924;28;20215;-73
2023/05/27 01:14:01;;;;;;;15.32;6.65;;;10.10;99.90;;;;;;5052342;28;20234;-73
2023/05/27 01:16:30;;;;;;;13.70;5.70;;;10.10;99.90;;;;;;5047154;28;20291;-73
2023/05/27 01:19:02;;;;;;;20.05;6.30;;;10.10;99.90;;;;;;5052706;28;20188;-73
2023/05/27 01:21:31;;;;;;;18.48;6.22;;;10.00;99.90;;;;;;5050566;28;20195;-74
2023/05/27 01:24:05;;;;;;;16.13;6.75;;;10.00;99.90;;;;;;5041103;28;20232;-74
2023/05/27 01:26:32;;;;;;;24.30;6.95;;;10.00;99.90;;;;;;5056624;28;20550;-73
2023/05/27 01:29:00;;;;;;;21.30;5.75;;;9.90;99.90;;;;;;5058211;28;20210;-73
2023/05/27 01:31:35;;;;;;;21.10;5.47;;;9.90;99.90;;;;;;5055566;28;20306;-74
2023/05/27 01:34:06;;;;;;;13.23;5.55;;;9.90;99.90;;;;;;5048031;28;20227;-74
2023/05/27 01:36:39;;;;;;;22.83;5.07;;;9.90;99.90;;;;;;5063409;28;20227;-73
2023/05/27 01:39:12;;;;;;;17.95;6.00;;;9.90;99.90;;;;;;5052274;28;20282;-73
2023/05/27 01:41:53;;;;;;;13.55;5.30;;;9.90;99.90;;;;;;5056304;28;20638;-73
2023/05/27 01:44:21;;;;;;;16.67;6.00;;;9.80;99.90;;;;;;5044897;28;20302;-73
2023/05/27 01:46:48;;;;;;;15.20;5.72;;;9.80;99.90;;;;;;5045567;28;20281;-72
2023/05/27 01:49:15;;;;;;;19.48;5.50;;;9.80;99.90;;;;;;5050791;28;20247;-73
2023/05/27 01:51:42;;;;;;;16.38;5.53;;;9.80;99.90;;;;;;5060301;28;20274;-73
2023/05/27 01:54:10;;;;;;;13.73;6.63;;;9.80;99.90;;;;;;5059353;28;20227;-74
2023/05/27 01:56:37;;;;;;;22.80;6.75;;;9.80;99.90;;;;;;5052682;28;20282;-73
2023/05/27 01:59:04;;;;;;;17.98;5.82;;;9.70;99.90;;;;;;5054446;28;20195;-74
2023/05/27 02:01:33;;;;;;;23.92;6.03;;;9.70;99.90;;;;;;5047883;28;20275;-73
2023/05/27 02:04:00;;;;;;;18.30;6.13;;;9.70;99.90;;;;;;5048222;28;20668;-73
2023/05/27 02:06:27;;;;;;;16.00;5.63;;;9.70;99.90;;;;;;5052151;28;20627;-73
2023/05/27 02:08:55;;;;;;;14.30;5.75;;;9.70;99.90;;;;;;5050024;28;20697;-72
2023/05/27 02:11:25;;;;;;;22.23;7.00;;;9.70;99.90;;;;;;5046203;28;20208;-73
2023/05/27 02:13:52;;;;;;;16.13;5.47;;;9.70;99.90;;;;;;5051792;28;20279;-75
2023/05/27 02:16:20;;;;;;;25.42;7.10;;;9.60;99.90;;;;;;5049397;28;20199;-71
2023/05/27 02:18:48;;;;;;;22.20;6.68;;;9.60;99.90;;;;;;5051169;28;20549;-73
2023/05/27 02:21:15;;;;;;;19.70;6.32;;;9.60;99.90;;;;;;5050610;28;20206;-73
2023/05/27 02:23:42;;;;;;;18.48;6.50;;;9.60;99.90;;;;;;5046422;28;20306;-73
2023/05/27 02:26:09;;;;;;;17.90;7.82;;;9.60;99.90;;;;;;5053237;28;20589;-73
2023/05/27 02:28:38;;;;;;;17.90;6.93;;;9.60;99.90;;;;;;5058795;28;20304;-73
2023/05/27 02:31:05;;;;;;;23.35;5.40;;;9.60;99.90;;;;;;5051928;28;20644;-73
2023/05/27 02:33:32;;;;;;;18.00;7.28;;;9.60;99.90;;;;;;5052021;28;20752;-73
2023/05/27 02:35:59;;;;;;;20.02;6.72;;;9.50;99.90;;;;;;5055531;28;20537;-73
2023/05/27 02:38:26;;;;;;;18.00;6.70;;;9.70;99.90;;;;;;5050372;28;20282;-73
2023/05/27 02:40:53;;;;;;;16.70;6.30;;;9.50;99.90;;;;;;5052100;28;20199;-72
2023/05/27 02:43:20;;;;;;;24.75;6.22;;;9.50;99.90;;;;;;5049641;28;20306;-73
2023/05/27 02:45:48;;;;;;;20.52;6.30;;;9.50;99.90;;;;;;5053529;28;20590;-73
2023/05/27 02:48:15;;;;;;;19.20;8.23;;;9.40;99.90;;;;;;5047776;28;20235;-73
2023/05/27 02:50:42;;;;;;;23.45;6.82;;;9.40;99.90;;;;;;5043968;28;20315;-72
2023/05/27 02:53:09;;;;;;;20.73;7.35;;;9.40;99.90;;;;;;5052097;28;20219;-74
2023/05/27 02:55:36;;;;;;;12.18;5.70;;;9.40;99.90;;;;;;5045746;28;20218;-72
2023/05/27 02:58:04;;;;;;;19.27;6.50;;;9.40;99.90;;;;;;5055434;28;20199;-73
2023/05/27 03:00:31;;;;;;;21.80;7.60;;;9.30;99.90;;;;;;5044860;28;20200;-73
2023/05/27 03:03:00;;;;;;;20.73;6.80;;;9.30;99.90;;;;;;5046780;28;20574;-72
2023/05/27 03:05:27;;;;;;;18.92;8.07;;;9.30;99.90;;;;;;5049032;28;20705;-74
2023/05/27 03:07:54;;;;;;;12.20;6.03;;;9.30;99.90;;;;;;5046972;28;20203;-74
2023/05/27 03:10:20;;;;;;;25.65;6.15;;;9.40;99.90;;;;;;5050844;28;20210;-73
2023/05/27 03:12:47;;;;;;;21.65;8.02;;;9.40;99.90;;;;;;5046472;28;20303;-73
2023/05/27 03:15:14;;;;;;;22.75;6.28;;;9.40;99.90;;;;;;5053916;28;20219;-73
2023/05/27 03:17:41;;;;;;;18.33;5.78;;;9.40;99.90;;;;;;5047528;28;20254;-74
2023/05/27 03:20:11;;;;;;;23.77;7.43;;;9.40;99.90;;;;;;5048493;28;20287;-73
2023/05/27 03:22:38;;;;;;;23.42;6.63;;;9.30;99.90;;;;;;5046935;28;20226;-73
2023/05/27 03:25:05;;;;;;;20.15;6.75;;;9.30;99.90;;;;;;5055311;28;20196;-73
2023/05/27 03:27:33;;;;;;;16.90;6.57;;;9.30;99.90;;;;;;5055418;28;20257;-73
2023/05/27 03:30:00;;;;;;;21.77;7.75;;;9.30;99.90;;;;;;5055011;28;20700;-73
2023/05/27 03:32:27;;;;;;;22.92;6.63;;;9.30;99.90;;;;;;5053294;28;20219;-74
2023/05/27 03:34:53;;;;;;;33.60;7.22;;;9.40;99.90;;;;;;5052261;28;20278;-73
2023/05/27 03:37:22;;;;;;;18.02;6.22;;;9.40;99.90;;;;;;5049630;28;20204;-74
2023/05/27 03:39:49;;;;;;;15.80;6.50;;;9.40;99.90;;;;;;5044768;28;20671;-74
2023/05/27 03:42:16;;;;;;;22.90;8.82;;;9.50;99.90;;;;;;5050491;28;20254;-74
2023/05/27 03:44:43;;;;;;;21.05;6.40;;;9.50;99.90;;;;;;5045883;28;20275;-74
2023/05/27 03:47:10;;;;;;;24.05;6.80;;;9.50;99.90;;;;;;5050643;28;20300;-73
2023/05/27 03:49:37;;;;;;;20.45;6.40;;;9.50;99.90;;;;;;5047544;28;20196;-73
2023/05/27 03:52:04;;;;;;;21.98;7.60;;;9.60;99.90;;;;;;5048289;28;20215;-73
2023/05/27 03:54:32;;;;;;;15.45;5.45;;;9.60;99.90;;;;;;5053615;28;20621;-72
2023/05/27 03:56:59;;;;;;;20.27;6.18;;;9.60;99.90;;;;;;5048877;28;20282;-74
2023/05/27 03:59:28;;;;;;;13.57;6.85;;;9.70;99.90;;;;;;5045591;28;20196;-73
2023/05/27 04:01:55;;;;;;;16.15;7.00;;;9.80;99.90;;;;;;5048892;28;20640;-74
2023/05/27 04:04:22;;;;;;;15.05;5.85;;;9.90;99.90;;;;;;5046962;28;20590;-74
2023/05/27 04:06:49;;;;;;;24.45;6.95;;;9.90;99.90;;;;;;5049295;28;20280;-74
2023/05/27 04:09:16;;;;;;;24.02;6.50;;;10.00;99.90;;;;;;5048438;28;20206;-74
2023/05/27 04:11:44;;;;;;;13.70;4.88;;;10.00;99.90;;;;;;5042844;28;20219;-74
2023/05/27 04:14:44;;;;;;;15.75;6.50;;;10.10;99.90;;;;;;5045804;28;20196;-74
2023/05/27 04:17:11;;;;;;;26.77;6.43;;;10.30;99.90;;;;;;5038345;28;20723;-73
2023/05/27 04:19:48;;;;;;;21.80;6.95;;;10.70;99.90;;;;;;5054111;28;20204;-74
2023/05/27 04:22:15;;;;;;;16.08;6.90;;;11.00;99.90;;;;;;5060588;28;20220;-72
2023/05/27 04:24:44;;;;;;;15.55;6.50;;;11.40;99.90;;;;;;5054672;28;20584;-73
2023/05/27 04:27:16;;;;;;;11.75;5.00;;;11.90;99.90;;;;;;5052406;28;20552;-73
2023/05/27 04:29:45;;;;;;;18.20;7.70;;;12.40;99.90;;;;;;5050890;28;20519;-73
2023/05/27 04:32:12;;;;;;;16.20;5.60;;;12.80;99.90;;;;;;5062108;28;20221;-73
2023/05/27 04:34:41;;;;;;;11.30;5.43;;;13.30;99.90;;;;;;5053874;28;20203;-73
2023/05/27 04:37:09;;;;;;;9.95;5.22;;;13.80;99.90;;;;;;5052938;28;20598;-72
2023/05/27 04:39:45;;;;;;;18.15;6.22;;;14.30;99.90;;;;;;5043337;28;20623;-74
2023/05/27 04:42:15;;;;;;;19.23;5.85;;;14.60;99.90;;;;;;5054756;28;20210;-73
2023/05/27 04:44:42;;;;;;;17.50;6.88;;;14.90;99.90;;;;;;5041635;28;20203;-73
2023/05/27 04:47:09;;;;;;;14.85;6.07;;;15.20;99.90;;;;;;5049777;28;20201;-74
2023/05/27 04:49:36;;;;;;;17.47;5.80;;;15.60;99.90;;;;;;5043950;28;20218;-71
2023/05/27 04:52:06;;;;;;;11.30;5.10;;;16.00;99.90;;;;;;5041331;28;20517;-73
2023/05/27 04:54:33;;;;;;;10.30;4.70;;;16.50;99.90;;;;;;5050931;28;20449;-72
2023/05/27 04:57:00;;;;;;;17.37;6.87;;;16.60;99.90;;;;;;5048114;28;20794;-73
2023/05/27 04:59:45;;;;;;;14.43;5.27;;;16.90;99.90;;;;;;5046443;28;20489;-72
2023/05/27 05:02:21;;;;;;;9.10;4.43;;;17.20;99.90;;;;;;5051211;28;20462;-73
2023/05/27 05:04:49;;;;;;;16.93;6.00;;;17.60;99.90;;;;;;5051045;28;20437;-73
2023/05/27 05:07:19;;;;;;;17.87;6.10;;;17.70;99.90;;;;;;5051704;28;20471;-74
2023/05/27 05:09:46;;;;;;;9.17;4.73;;;18.00;99.90;;;;;;5051593;28;20442;-73
2023/05/27 05:12:14;;;;;;;7.90;4.20;;;18.30;99.70;;;;;;5044383;28;20509;-73
2023/05/27 05:14:42;;;;;;;13.70;5.27;;;19.00;98.60;;;;;;5038648;28;20529;-73
2023/05/27 05:17:10;;;;;;;11.93;4.47;;;19.50;95.80;;;;;;5048540;28;20466;-73
2023/05/27 05:19:37;;;;;;;12.03;4.30;;;19.70;94.90;;;;;;5040603;28;20542;-72
2023/05/27 05:22:04;;;;;;;11.97;4.57;;;19.90;93.70;;;;;;5052480;28;20537;-73
2023/05/27 05:24:31;;;;;;;13.40;5.00;;;20.20;93.70;;;;;;5049852;28;20448;-73
2023/05/27 05:26:58;;;;;;;12.37;5.10;;;20.60;92.20;;;;;;5054072;28;20516;-73
2023/05/27 05:29:25;;;;;;;12.63;5.57;;;21.00;91.30;;;;;;5053873;28;20478;-72
2023/05/27 05:31:53;;;;;;;13.07;5.40;;;21.40;90.10;;;;;;5049520;28;20486;-74
2023/05/27 05:34:20;;;;;;;18.33;5.17;;;21.40;90.00;;;;;;5043531;28;20481;-73
2023/05/27 05:36:47;;;;;;;9.77;4.67;;;21.60;89.00;;;;;;5050904;28;20900;-73
2023/05/27 05:39:15;;;;;;;14.30;5.40;;;22.00;88.20;;;;;;5048257;28;20460;-73
2023/05/27 05:41:42;;;;;;;9.77;4.80;;;22.40;86.00;;;;;;5046957;28;20522;-73
2023/05/27 05:44:08;;;;;;;15.13;5.10;;;22.50;85.80;;;;;;5042944;28;20529;-73
2023/05/27 05:46:35;;;;;;;12.43;5.03;;;22.70;84.40;;;;;;5047445;28;20510;-73
2023/05/27 05:49:04;;;;;;;11.57;5.20;;;22.80;84.00;;;;;;5036470;28;20422;-72
2023/05/27 05:51:31;;;;;;;11.90;5.33;;;23.40;82.50;;;;;;5043717;28;20639;-73
2023/05/27 05:53:58;;;;;;;14.30;5.80;;;23.70;81.90;;;;;;5042806;28;20500;-73
2023/05/27 05:56:25;;;;;;;12.23;4.27;;;24.00;80.20;;;;;;5047264;28;20523;-73
2023/05/27 05:58:53;;;;;;;11.57;5.13;;;24.20;79.20;;;;;;5049275;28;20876;-72
2023/05/27 06:01:20;;;;;;;11.57;5.13;;;24.00;79.20;;;;;;5045805;28;20441;-73
2023/05/27 06:03:47;;;;;;;10.97;5.60;;;24.10;79.20;;;;;;5047147;28;20469;-73
2023/05/27 06:06:15;;;;;;;13.13;4.80;;;24.10;78.00;;;;;;5046438;28;20441;-72
2023/05/27 06:08:45;;;;;;;13.43;5.67;;;23.80;78.70;;;;;;5038924;28;20433;-74
2023/05/27 06:11:12;;;;;;;9.70;4.90;;;24.20;78.60;;;;;;5047212;28;20867;-72
2023/05/27 06:13:39;;;;;;;13.90;4.97;;;24.30;77.90;;;;;;5050813;28;20545;-71
2023/05/27 06:16:06;;;;;;;7.87;3.40;;;25.10;76.30;;;;;;5050841;28;20513;-72
2023/05/27 06:18:33;;;;;;;10.87;6.73;;;25.30;75.30;;;;;;5050624;28;20448;-72
2023/05/27 06:21:00;;;;;;;13.80;4.77;;;25.40;75.10;;;;;;5044873;28;20440;-72
2023/05/27 06:23:29;;;;;;;10.30;5.00;;;25.10;75.30;;;;;;5050663;28;20803;-73
2023/05/27 06:25:56;;;;;;;11.93;4.20;;;25.10;75.50;;;;;;5048837;28;20469;-73
2023/05/27 06:28:23;;;;;;;10.73;4.70;;;25.10;75.60;;;;;;5048487;28;20432;-72
2023/05/27 06:30:50;;;;;;;13.57;5.40;;;25.20;75.10;;;;;;5050390;28;20531;-74
2023/05/27 06:33:17;;;;;;;12.50;4.63;;;25.30;74.70;;;;;;5048793;28;20515;-73
2023/05/27 06:35:44;;;;;;;10.13;5.10;;;25.50;74.00;;;;;;5044790;28;20514;-73
2023/05/27 06:38:11;;;;;;;10.67;4.40;;;25.80;74.10;;;;;;5051955;28;20445;-73
2023/05/27 06:40:39;;;;;;;13.80;4.23;;;25.90;73.20;;;;;;5048789;28;20519;-73
2023/05/27 06:43:07;;;;;;;9.53;4.80;;;26.00;72.30;;;;;;5045673;28;20462;-73
2023/05/27 06:45:34;;;;;;;11.13;4.70;;;26.40;71.90;;;;;;5043519;28;20450;-71
2023/05/27 06:48:01;;;;;;;11.13;4.70;;;26.40;72.10;;;;;;5049881;28;20433;-74
2023/05/27 06:50:28;;;;;;;8.30;4.50;;;26.70;70.80;;;;;;5047080;28;20446;-72
2023/05/27 06:52:55;;;;;;;14.17;5.13;;;26.80;71.30;;;;;;5049373;28;20487;-71
2023/05/27 06:55:22;;;;;;;8.73;4.17;;;26.50;71.50;;;;;;5048990;28;20473;-70
2023/05/27 06:57:50;;;;;;;22.63;6.50;;;26.70;71.40;;;;;;5050197;28;20441;-70
2023/05/27 07:00:18;;;;;;;11.50;4.93;;;26.70;69.90;;;;;;5045804;28;20448;-73
2023/05/27 07:02:46;;;;;;;12.20;4.20;;;27.10;70.30;;;;;;5050193;28;20456;-73
2023/05/27 07:05:13;;;;;;;11.60;5.43;;;27.20;68.90;;;;;;5056858;28;20444;-72
2023/05/27 07:07:39;;;;;;;12.93;4.93;;;27.20;69.60;;;;;;5053122;28;20438;-74
2023/05/27 07:10:08;;;;;;;12.50;4.70;;;27.30;69.40;;;;;;5049216;28;20886;-72
2023/05/27 07:12:35;;;;;;;14.07;5.17;;;27.50;68.90;;;;;;5053064;28;20573;-71
2023/05/27 07:15:03;;;;;;;13.87;5.07;;;27.30;67.80;;;;;;5052973;28;20435;-69
2023/05/27 07:17:31;;;;;;;12.33;5.43;;;26.80;69.40;;;;;;5047167;28;20434;-71
2023/05/27 07:19:58;;;;;;;10.93;5.50;;;26.50;68.90;;;;;;5050457;28;20452;-72
2023/05/27 07:22:25;;;;;;;13.83;5.30;;;26.30;69.90;;;;;;5056785;28;20545;-71
2023/05/27 07:24:54;;;;;;;15.40;5.70;;;26.20;71.30;;;;;;5051858;28;20446;-72
2023/05/27 07:27:21;;;;;;;17.00;4.90;;;26.40;70.70;;;;;;5053861;28;20442;-73
2023/05/27 07:29:48;;;;;;;14.70;6.17;;;26.80;70.30;;;;;;5052989;28;20472;-71
2023/05/27 07:32:16;;;;;;;14.80;4.90;;;27.00;69.90;;;;;;5051154;28;20584;-75
2023/05/27 07:34:43;;;;;;;10.57;5.73;;;27.10;69.60;;;;;;5047790;28;20454;-70
2023/05/27 07:37:10;;;;;;;12.20;5.60;;;27.30;70.00;;;;;;5049855;28;20444;-70
2023/05/27 07:39:37;;;;;;;16.63;4.80;;;27.70;69.40;;;;;;5059457;28;20524;-72
2023/05/27 07:42:05;;;;;;;14.57;5.37;;;27.70;68.50;;;;;;5056625;28;20557;-74
2023/05/27 07:44:32;;;;;;;14.90;5.57;;;27.50;69.20;;;;;;5060809;28;20454;-74
2023/05/27 07:47:00;;;;;;;13.90;5.00;;;27.60;68.40;;;;;;5062087;28;20525;-74
2023/05/27 07:49:28;;;;;;;11.07;4.70;;;28.10;68.30;;;;;;5060879;28;20445;-72
2023/05/27 07:51:55;;;;;;;16.30;4.83;;;28.00;67.60;;;;;;5051795;28;20573;-73
2023/05/27 07:54:22;;;;;;;12.83;5.50;;;28.20;66.90;;;;;;5053233;28;20441;-72
2023/05/27 07:56:50;;;;;;;16.63;5.70;;;28.20;67.40;;;;;;5055581;28;20429;-72
2023/05/27 07:59:17;;;;;;;11.40;4.97;;;28.40;66.80;;;;;;5048550;28;20517;-73
2023/05/27 08:01:45;;;;;;;8.27;4.57;;;28.30;66.70;;;;;;5054528;28;20433;-74
2023/05/27 08:04:12;;;;;;;8.43;4.43;;;28.10;66.20;;;;;;5048022;28;20530;-74
2023/05/27 08:06:40;;;;;;;11.60;4.83;;;27.70;67.50;;;;;;5057052;28;20439;-73
2023/05/27 08:09:08;;;;;;;10.03;4.80;;;27.80;67.40;;;;;;5053744;28;20444;-72
2023/05/27 08:11:35;;;;;;;17.00;5.67;;;28.10;67.40;;;;;;5058070;28;20499;-72
2023/05/27 08:14:02;;;;;;;14.83;5.43;;;28.40;66.80;;;;;;5047083;28;20929;-73
2023/05/27 08:16:29;;;;;;;14.23;5.60;;;28.30;66.90;;;;;;5054832;28;21017;-72
2023/05/27 08:18:56;;;;;;;16.20;5.70;;;28.50;66.00;;;;;;5053977;28;20434;-73
2023/05/27 08:21:22;;;;;;;11.23;5.37;;;28.20;65.90;;;;;;5062748;28;20927;-74
2023/05/27 08:23:51;;;;;;;15.57;5.77;;;27.50;67.50;;;;;;5049182;28;20447;-73
2023/05/27 08:26:18;;;;;;;11.57;4.80;;;27.50;67.00;;;;;;5054530;28;20865;-73
2023/05/27 08:28:46;;;;;;;13.70;5.40;;;27.20;68.60;;;;;;5047549;28;20435;-72
2023/05/27 08:31:12;;;;;;;12.90;5.17;;;26.90;68.60;;;;;;5052058;28;20513;-74
2023/05/27 08:33:39;;;;;;;11.77;5.83;;;27.30;69.10;;;;;;5062430;28;20572;-72
2023/05/27 08:36:07;;;;;;;16.40;7.20;;;27.50;67.80;;;;;;5063979;28;20525;-73
2023/05/27 08:38:35;;;;;;;13.83;5.80;;;27.10;68.40;;;;;;5050789;28;20438;-73
2023/05/27 08:41:03;;;;;;;10.73;5.80;;;27.40;69.10;;;;;;5055545;28;20438;-74
2023/05/27 08:43:30;;;;;;;11.80;6.03;;;27.50;68.50;;;;;;5050699;28;20561;-72
2023/05/27 08:45:58;;;;;;;11.67;6.70;;;28.30;67.10;;;;;;5052539;28;20422;-72
2023/05/27 08:48:26;;;;;;;16.23;7.60;;;28.30;66.40;;;;;;5048692;28;20541;-72
2023/05/27 08:50:53;;;;;;;14.10;6.90;;;28.00;67.00;;;;;;5053302;28;20811;-73
2023/05/27 08:53:20;;;;;;;13.47;7.53;;;28.00;67.40;;;;;;5050691;28;20497;-71
2023/05/27 08:55:51;;;;;;;11.50;5.40;;;28.20;66.30;;;;;;5046923;28;20462;-73
2023/05/27 08:58:21;;;;;;;15.93;5.87;;;27.00;65.30;;;;;;5053741;28;20551;-72
2023/05/27 09:00:48;;;;;;;17.23;5.93;;;27.30;67.00;;;;;;5052449;28;20446;-73
2023/05/27 09:03:16;;;;;;;14.30;5.70;;;27.10;67.10;;;;;;5050500;28;20472;-72
2023/05/27 09:05:43;;;;;;;12.93;5.97;;;27.40;66.20;;;;;;5053513;28;20800;-77
2023/05/27 09:08:13;;;;;;;10.37;5.43;;;27.30;65.00;;;;;;5052732;28;20516;-73
2023/05/27 09:10:42;;;;;;;16.30;5.67;;;27.70;64.00;;;;;;5045627;28;20797;-74
2023/05/27 09:13:10;;;;;;;16.27;5.87;;;28.20;64.20;;;;;;5060511;28;20478;-73
2023/05/27 09:15:39;;;;;;;12.03;5.60;;;28.20;63.10;;;;;;5055756;28;20492;-73
2023/05/27 09:18:06;;;;;;;14.13;5.60;;;28.30;63.30;;;;;;5052975;28;20470;-72
2023/05/27 09:20:33;;;;;;;14.30;6.03;;;28.00;61.10;;;;;;5049396;28;20867;-71
2023/05/27 09:23:01;;;;;;;13.10;6.40;;;26.10;63.30;;;;;;5048493;28;20532;-73
2023/05/27 09:25:28;;;;;;;12.33;4.93;;;26.50;64.30;;;;;;5046553;28;20438;-73
2023/05/27 09:27:56;;;;;;;13.20;5.83;;;26.60;64.60;;;;;;5051872;28;20441;-73
2023/05/27 09:30:25;;;;;;;12.00;6.10;;;27.10;66.00;;;;;;5038167;28;20513;-73
2023/05/27 09:33:02;;;;;;;13.60;5.40;;;27.20;65.60;;;;;;5046698;28;20533;-72
2023/05/27 09:35:28;;;;;;;10.27;5.67;;;27.30;63.40;;;;;;5047321;28;20513;-75
2023/05/27 09:37:55;;;;;;;9.73;6.93;;;27.10;65.10;;;;;;5038247;28;20474;-72
2023/05/27 09:40:22;;;;;;;18.93;7.13;;;27.70;65.80;;;;;;5041821;28;20535;-74
2023/05/27 09:42:51;;;;;;;13.90;5.23;;;28.20;64.80;;;;;;5045399;28;20603;-71
2023/05/27 09:45:20;;;;;;;15.10;6.50;;;28.10;61.50;;;;;;5043737;28;20528;-72
2023/05/27 09:47:49;;;;;;;10.50;5.27;;;27.50;61.30;;;;;;5041264;28;20842;-72
2023/05/27 09:50:17;;;;;;;14.47;5.53;;;27.30;61.80;;;;;;5039343;28;20533;-72
2023/05/27 09:52:46;;;;;;;14.47;6.13;;;27.60;61.20;;;;;;5046467;28;21043;-76
2023/05/27 09:55:14;;;;;;;11.30;5.80;;;27.50;63.10;;;;;;5045473;28;20560;-74
2023/05/27 09:57:41;;;;;;;10.97;5.70;;;27.40;62.50;;;;;;5051740;28;20861;-73
2023/05/27 10:00:12;;;;;;;12.23;4.90;;;27.10;63.40;;;;;;5052602;28;20522;-72
2023/05/27 10:02:41;;;;;;;17.00;6.80;;;27.50;63.90;;;;;;5051882;28;20536;-74
2023/05/27 10:05:09;;;;;;;10.20;5.17;;;27.10;63.90;;;;;;5051785;28;20482;-74
2023/05/27 10:07:40;;;;;;;15.60;6.07;;;26.90;64.70;;;;;;5048017;28;21207;-74
2023/05/27 10:10:09;;;;;;;14.17;7.03;;;26.50;65.10;;;;;;5051306;28;20859;-75
2023/05/27 10:12:38;;;;;;;10.77;5.80;;;26.20;65.50;;;;;;5048761;28;20993;-73
2023/05/27 10:15:06;;;;;;;12.63;5.00;;;26.80;65.00;;;;;;5045661;28;20438;-74
2023/05/27 10:17:43;;;;;;;16.00;6.13;;;27.20;64.40;;;;;;5050040;28;20442;-72
2023/05/27 10:20:10;;;;;;;11.70;6.57;;;27.10;64.90;;;;;;5043454;28;20436;-72
2023/05/27 10:22:48;;;;;;;11.97;5.80;;;26.80;64.90;;;;;;5044200;28;20789;-71
2023/05/27 10:25:16;;;;;;;11.33;5.37;;;26.70;65.10;;;;;;5055776;28;20477;-75
2023/05/27 10:27:46;;;;;;;20.80;9.10;;;26.30;66.70;;;;;;5056752;28;20438;-72
2023/05/27 10:30:14;;;;;;;20.00;7.40;;;26.10;66.00;;;;;;5053986;28;20460;-73
2023/05/27 10:32:51;;;;;;;14.50;7.03;;;25.80;67.10;;;;;;5051022;28;20487;-72
2023/05/27 10:35:18;;;;;;;15.00;6.80;;;25.90;67.50;;;;;;5044541;28;20513;-72
2023/05/27 10:37:48;;;;;;;14.23;7.27;;;25.20;67.20;;;;;;5046700;28;20996;-72
2023/05/27 10:40:25;;;;;;;11.50;5.73;;;24.40;69.50;;;;;;5047903;28;20448;-72
2023/05/27 10:43:00;;;;;;;12.13;6.13;;;24.20;69.60;;;;;;5050149;28;20455;-73
2023/05/27 10:45:33;;;;;;;17.60;5.67;;;23.60;70.80;;;;;;5046105;28;20448;-73
2023/05/27 10:48:00;;;;;;;13.73;5.53;;;23.30;72.50;;;;;;5053516;28;20438;-73
2023/05/27 10:50:33;;;;;;;9.90;5.57;;;23.10;72.10;;;;;;5056564;28;20429;-72
2023/05/27 10:53:02;;;;;;;12.23;7.50;;;23.10;72.80;;;;;;5044420;28;20894;-73
2023/05/27 10:55:31;;;;;;;15.23;5.77;;;23.30;72.30;;;;;;5053379;28;20501;-73
2023/05/27 10:57:58;;;;;;;13.77;5.17;;;23.40;72.90;;;;;;5063055;28;20525;-73
2023/05/27 11:00:28;;;;;;;8.60;5.73;;;23.40;72.70;;;;;;5054399;28;20434;-71
2023/05/27 11:02:55;;;;;;;13.43;5.40;;;23.30;72.70;;;;;;5053934;28;20465;-74
2023/05/27 11:05:29;;;;;;;12.07;6.27;;;23.10;73.50;;;;;;5060389;28;20446;-72
2023/05/27 11:07:56;;;;;;;13.40;5.90;;;23.00;74.30;;;;;;5053653;28;20932;-72
2023/05/27 11:10:24;;;;;;;12.73;5.13;;;23.10;74.10;;;;;;5049593;28;20970;-72
2023/05/27 11:12:52;;;;;;;13.87;6.00;;;23.10;74.20;;;;;;5056715;28;20490;-74
2023/05/27 11:15:20;;;;;;;11.20;6.37;;;22.90;73.20;;;;;;5058997;28;20513;-72
2023/05/27 11:17:46;;;;;;;11.23;5.13;;;22.80;73.30;;;;;;5047546;28;20430;-71
2023/05/27 11:20:16;;;;;;;12.90;5.63;;;22.80;72.70;;;;;;5050219;28;20447;-73
2023/05/27 11:22:50;;;;;;;11.90;6.10;;;22.70;73.20;;;;;;5042911;28;20469;-72
2023/05/27 11:25:17;;;;;;;13.67;6.10;;;22.80;74.00;;;;;;5047561;28;20453;-73
2023/05/27 11:27:45;;;;;;;17.37;7.17;;;22.60;74.70;;;;;;5045562;28;20438;-71
2023/05/27 11:30:14;;;;;;;12.97;5.77;;;22.80;75.60;;;;;;5046456;28;20453;-73
2023/05/27 11:32:41;;;;;;;12.27;5.80;;;22.90;75.10;;;;;;5046431;28;20518;-73
2023/05/27 11:35:14;;;;;;;12.87;6.17;;;22.90;75.10;;;;;;5051807;28;20446;-71
2023/05/27 11:37:41;;;;;;;12.10;5.90;;;23.00;74.70;;;;;;5042973;28;20435;-72
2023/05/27 11:40:12;;;;;;;17.60;7.40;;;23.10;73.60;;;;;;5040556;28;20904;-72
2023/05/27 11:42:46;;;;;;;12.17;5.90;;;23.10;73.70;;;;;;5047990;28;20803;-74
2023/05/27 11:45:17;;;;;;;16.07;6.57;;;23.20;73.50;;;;;;5042973;28;20450;-77
2023/05/27 11:47:50;;;;;;;12.90;5.47;;;22.90;74.60;;;;;;5050510;28;20461;-75
2023/05/27 11:50:18;;;;;;;15.90;7.03;;;22.90;74.10;;;;;;5040378;28;20453;-74
2023/05/27 11:52:52;;;;;;;11.50;6.30;;;22.70;74.90;;;;;;5045839;28;20632;-74
2023/05/27 11:55:19;;;;;;;15.87;6.60;;;22.60;74.90;;;;;;5042450;28;20437;-74
2023/05/27 11:57:49;;;;;;;16.10;6.63;;;22.40;74.70;;;;;;5050316;28;20504;-75
2023/05/27 12:00:17;;;;;;;18.33;6.80;;;22.20;75.00;;;;;;5043905;28;20533;-73
2023/05/27 12:02:44;;;;;;;12.60;6.40;;;22.30;75.50;;;;;;5052737;28;20523;-75
2023/05/27 12:05:12;;;;;;;14.67;6.33;;;22.10;75.80;;;;;;5048298;28;20512;-76
2023/05/27 12:07:40;;;;;;;28.13;13.83;;;22.20;76.00;;;;;;5052106;28;20442;-74
2023/05/27 12:10:08;;;;;;;11.07;5.20;;;22.00;76.20;;;;;;5047640;28;20448;-74
2023/05/27 12:12:38;;;;;;;14.00;6.97;;;22.10;75.90;;;;;;5049704;28;20937;-73
2023/05/27 12:15:08;;;;;;;9.60;5.93;;;22.00;75.20;;;;;;5048315;28;20799;-73
2023/05/27 12:17:35;;;;;;;17.83;6.80;;;22.00;75.50;;;;;;5051471;28;20448;-73
2023/05/27 12:20:06;;;;;;;30.63;16.30;;;22.10;75.80;;;;;;5050772;28;20474;-76
2023/05/27 12:22:32;;;;;;;17.93;7.77;;;22.20;76.30;;;;;;5044944;28;20525;-75
2023/05/27 12:24:59;;;;;;;10.93;5.30;;;22.20;76.20;;;;;;5049368;28;20525;-74
2023/05/27 12:27:26;;;;;;;26.10;15.40;;;22.10;76.00;;;;;;5054256;28;20438;-74
2023/05/27 12:29:53;;;;;;;11.63;5.30;;;22.00;76.50;;;;;;5050430;28;20488;-75
2023/05/27 12:32:21;;;;;;;11.40;5.60;;;22.10;76.50;;;;;;5047548;28;20513;-75
2023/05/27 12:34:48;;;;;;;9.70;5.80;;;22.00;75.40;;;;;;5039803;28;20471;-74
2023/05/27 12:37:16;;;;;;;10.80;6.10;;;21.90;75.70;;;;;;5056953;28;20438;-75
2023/05/27 12:39:43;;;;;;;9.70;4.70;;;21.80;76.40;;;;;;5046321;28;20929;-76
2023/05/27 12:42:10;;;;;;;11.53;7.37;;;21.80;76.50;;;;;;5048386;28;20497;-75
2023/05/27 12:44:37;;;;;;;12.37;5.50;;;21.90;76.70;;;;;;5048003;28;20566;-75
2023/05/27 12:47:04;;;;;;;14.37;7.13;;;21.90;77.40;;;;;;5055613;28;20859;-74